createdAt,value
2022-10-18T00:01:15.659Z,15.2
2022-10-18T00:05:23.514Z,15.2
2022-10-18T00:07:27.568Z,15.2
2022-10-18T00:09:34.229Z,15.2
2022-10-18T00:11:38.155Z,15.2
2022-10-18T00:13:42.090Z,15.2
2022-10-18T00:14:45.469Z,15.2
2022-10-18T00:18:53.350Z,15.2
2022-10-18T00:20:57.289Z,15.1
2022-10-18T00:23:04.050Z,15.1
2022-10-18T00:25:07.986Z,15
2022-10-18T00:27:11.927Z,15.1
2022-10-18T00:29:15.845Z,15
2022-10-18T00:31:19.785Z,15
2022-10-18T00:33:23.718Z,15.1
2022-10-18T00:35:27.840Z,15.1
2022-10-18T00:37:34.491Z,15
2022-10-18T00:39:38.557Z,15.1
2022-10-18T00:41:42.367Z,15
2022-10-18T00:43:46.278Z,15.1
2022-10-18T00:45:50.195Z,15.1
2022-10-18T00:47:54.125Z,15
2022-10-18T00:49:58.069Z,15
2022-10-18T00:54:08.774Z,14.9
2022-10-18T00:56:12.695Z,14.9
2022-10-18T00:58:16.637Z,14.9
2022-10-18T01:00:20.562Z,14.9
2022-10-18T01:02:24.511Z,14.8
2022-10-18T01:04:28.444Z,14.8
2022-10-18T01:06:35.215Z,14.8
2022-10-18T01:10:43.102Z,14.8
2022-10-18T01:11:46.496Z,14.8
2022-10-18T01:13:50.411Z,14.8
2022-10-18T01:15:54.341Z,14.7
2022-10-18T01:17:58.287Z,14.7
2022-10-18T01:20:05.037Z,14.6
2022-10-18T01:22:08.968Z,14.7
2022-10-18T01:24:12.902Z,14.6
2022-10-18T01:26:18.330Z,14.6
2022-10-18T01:28:22.206Z,14.6
2022-10-18T01:30:26.162Z,14.6
2022-10-18T01:32:30.106Z,14.6
2022-10-18T01:34:36.851Z,14.6
2022-10-18T01:36:40.755Z,14.5
2022-10-18T01:38:44.684Z,14.5
2022-10-18T01:40:48.611Z,14.5
2022-10-18T01:42:52.638Z,14.5
2022-10-18T01:44:56.486Z,14.5
2022-10-18T01:47:00.399Z,14.5
2022-10-18T01:51:11.764Z,14.4
2022-10-18T01:53:15.688Z,14.4
2022-10-18T01:55:19.636Z,14.4
2022-10-18T01:57:23.545Z,14.3
2022-10-18T01:59:27.487Z,14.3
2022-10-18T02:01:31.427Z,14.3
2022-10-18T02:05:42.106Z,14.4
2022-10-18T02:12:08.056Z,14.4
2022-10-18T02:14:11.975Z,14.4
2022-10-18T02:18:22.648Z,14.4
2022-10-18T02:20:26.614Z,14.4
2022-10-18T02:22:30.738Z,14.4
2022-10-18T02:28:42.324Z,14.4
2022-10-18T02:32:53.006Z,14.3
2022-10-18T02:37:00.865Z,14.3
2022-10-18T02:39:04.791Z,14.3
2022-10-18T02:41:08.719Z,14.3
2022-10-18T02:43:12.676Z,14.2
2022-10-18T02:45:19.416Z,14.2
2022-10-18T02:47:23.383Z,14.2
2022-10-18T02:49:27.309Z,14.2
2022-10-18T02:51:31.265Z,14.2
2022-10-18T02:53:35.199Z,14.1
2022-10-18T02:55:39.143Z,14.2
2022-10-18T02:57:43.074Z,14.1
2022-10-18T02:59:49.817Z,14.1
2022-10-18T03:01:53.812Z,14.2
2022-10-18T03:03:57.677Z,14.1
2022-10-18T03:05:01.070Z,14.1
2022-10-18T03:07:04.996Z,14.2
2022-10-18T03:09:08.953Z,14
2022-10-18T03:11:12.874Z,14
2022-10-18T03:13:19.676Z,14.1
2022-10-18T03:15:23.511Z,14.1
2022-10-18T03:17:27.439Z,14
2022-10-18T03:19:31.372Z,14
2022-10-18T03:21:35.286Z,13.9
2022-10-18T03:23:39.223Z,13.9
2022-10-18T03:25:45.695Z,13.9
2022-10-18T03:27:49.879Z,13.9
2022-10-18T03:29:53.807Z,13.9
2022-10-18T03:31:57.758Z,13.8
2022-10-18T03:34:01.683Z,13.8
2022-10-18T03:36:05.599Z,13.8
2022-10-18T03:38:09.531Z,13.8
2022-10-18T03:40:13.436Z,13.8
2022-10-18T03:48:31.990Z,13.9
2022-10-18T03:58:54.458Z,13.8
2022-10-18T04:00:58.388Z,13.8
2022-10-18T04:02:01.807Z,13.8
2022-10-18T04:04:05.694Z,13.8
2022-10-18T04:06:09.632Z,13.8
2022-10-18T04:08:13.571Z,13.8
2022-10-18T04:10:20.290Z,13.7
2022-10-18T04:12:24.212Z,13.7
2022-10-18T04:14:28.150Z,13.7
2022-10-18T04:16:32.156Z,13.6
2022-10-18T04:18:35.989Z,13.6
2022-10-18T04:20:39.930Z,13.6
2022-10-18T04:22:43.846Z,13.6
2022-10-18T04:24:51.615Z,13.5
2022-10-18T04:26:55.543Z,13.5
2022-10-18T04:28:59.576Z,13.5
2022-10-18T04:31:03.384Z,13.5
2022-10-18T04:33:07.314Z,13.5
2022-10-18T04:35:11.232Z,13.5
2022-10-18T04:37:15.159Z,13.5
2022-10-18T04:39:21.902Z,13.4
2022-10-18T04:41:25.824Z,13.4
2022-10-18T04:43:29.733Z,13.4
2022-10-18T04:45:33.658Z,13.4
2022-10-18T04:47:37.583Z,13.3
2022-10-18T04:49:41.500Z,13.3
2022-10-18T04:51:45.456Z,13.3
2022-10-18T04:53:52.288Z,13.2
2022-10-18T04:55:56.217Z,13.2
2022-10-18T04:58:00.137Z,13.2
2022-10-18T04:59:03.919Z,13.1
2022-10-18T05:05:15.700Z,13.1
2022-10-18T05:07:22.438Z,13
2022-10-18T05:09:26.351Z,13
2022-10-18T05:11:30.283Z,12.9
2022-10-18T05:13:34.231Z,12.8
2022-10-18T05:15:38.110Z,12.8
2022-10-18T05:17:42.030Z,12.9
2022-10-18T05:19:45.938Z,12.9
2022-10-18T05:21:52.703Z,12.8
2022-10-18T05:28:10.986Z,12.9
2022-10-18T05:32:12.317Z,12.8
2022-10-18T05:36:22.968Z,12.8
2022-10-18T05:38:26.901Z,12.8
2022-10-18T05:40:30.804Z,12.7
2022-10-18T05:42:34.854Z,12.7
2022-10-18T05:44:38.645Z,12.7
2022-10-18T05:46:42.567Z,12.6
2022-10-18T05:48:46.482Z,12.5
2022-10-18T05:50:53.236Z,12.5
2022-10-18T05:53:06.740Z,12.5
2022-10-18T05:55:01.063Z,12.5
2022-10-18T05:57:24.871Z,12.4
2022-10-18T05:59:28.753Z,12.4
2022-10-18T06:01:32.751Z,12.4
2022-10-18T06:03:39.425Z,12.3
2022-10-18T06:05:43.313Z,12.3
2022-10-18T06:07:47.249Z,12.3
2022-10-18T06:09:51.150Z,12.3
2022-10-18T06:11:55.095Z,12.3
2022-10-18T06:13:58.998Z,12.3
2022-10-18T06:16:02.916Z,12.2
2022-10-18T06:18:09.647Z,12.2
2022-10-18T06:20:13.569Z,12.2
2022-10-18T06:22:17.453Z,12.2
2022-10-18T06:24:21.397Z,12.2
2022-10-18T06:26:25.307Z,12.1
2022-10-18T06:30:33.138Z,12.1
2022-10-18T06:32:39.857Z,12.2
2022-10-18T06:34:43.765Z,12.2
2022-10-18T06:36:47.692Z,12.1
2022-10-18T06:38:51.631Z,12.1
2022-10-18T06:40:55.625Z,12.2
2022-10-18T06:43:00.767Z,12.2
2022-10-18T06:45:03.415Z,12.2
2022-10-18T06:47:10.137Z,12.2
2022-10-18T06:49:15.318Z,12.2
2022-10-18T06:51:17.960Z,12.2
2022-10-18T06:52:21.327Z,12.3
2022-10-18T06:56:29.142Z,12.3
2022-10-18T06:58:33.044Z,12.4
2022-10-18T07:00:39.796Z,12.4
2022-10-18T07:02:43.708Z,12.5
2022-10-18T07:06:51.555Z,12.6
2022-10-18T07:08:55.469Z,12.6
2022-10-18T07:10:59.362Z,12.7
2022-10-18T07:13:27.340Z,12.6
2022-10-18T07:15:10.030Z,12.7
2022-10-18T07:17:13.908Z,12.7
2022-10-18T07:19:17.836Z,12.7
2022-10-18T07:21:21.742Z,12.7
2022-10-18T07:23:27.150Z,12.8
2022-10-18T07:25:31.014Z,12.9
2022-10-18T07:27:35.080Z,13
2022-10-18T07:29:41.652Z,13
2022-10-18T07:31:45.561Z,13.1
2022-10-18T07:33:49.480Z,13.1
2022-10-18T07:35:53.379Z,13.1
2022-10-18T07:37:57.295Z,13.2
2022-10-18T07:40:01.204Z,13.2
2022-10-18T07:48:19.704Z,13.6
2022-10-18T07:53:30.845Z,14
2022-10-18T07:57:41.481Z,20.4
2022-10-18T07:59:45.398Z,21.9
2022-10-18T08:01:49.404Z,23.8
2022-10-18T08:03:53.257Z,23.5
2022-10-18T08:05:57.178Z,23
2022-10-18T08:08:04.242Z,22.7
2022-10-18T08:10:05.057Z,22.6
2022-10-18T08:12:11.807Z,22.9
2022-10-18T08:14:15.702Z,23
2022-10-18T08:16:19.740Z,23
2022-10-18T08:18:23.590Z,23.3
2022-10-18T08:20:30.829Z,23.7
2022-10-18T08:22:31.454Z,23.4
2022-10-18T08:24:35.443Z,23.2
2022-10-18T08:26:42.168Z,24.1
2022-10-18T08:28:53.883Z,24.5
2022-10-18T08:30:50.018Z,24.9
2022-10-18T08:37:01.808Z,25.3
2022-10-18T08:41:12.486Z,24.8
2022-10-18T08:45:30.529Z,26.2
2022-10-18T08:46:23.694Z,25.6
2022-10-18T08:48:27.624Z,24.3
2022-10-18T08:50:31.535Z,24.4
2022-10-18T08:52:35.517Z,24.8
2022-10-18T08:54:42.195Z,25.5
2022-10-18T08:56:46.103Z,26.2
2022-10-18T08:58:50.048Z,26.7
2022-10-18T09:00:53.975Z,27.4
2022-10-18T09:02:57.927Z,27.1
2022-10-18T09:05:01.767Z,26.7
2022-10-18T09:09:12.395Z,24.6
2022-10-18T09:11:16.333Z,24.2
2022-10-18T09:13:20.243Z,24.6
2022-10-18T09:15:24.134Z,25.5
2022-10-18T09:17:28.037Z,26.5
2022-10-18T09:19:31.955Z,27.8
2022-10-18T09:21:35.856Z,26.2
2022-10-18T09:27:50.402Z,27.7
2022-10-18T09:29:54.311Z,28
2022-10-18T09:31:58.206Z,26.5
2022-10-18T09:34:02.112Z,26.8
2022-10-18T09:38:12.784Z,27.2
2022-10-18T09:42:20.571Z,27.1
2022-10-18T09:44:48.194Z,27.8
2022-10-18T09:46:52.087Z,28
2022-10-18T09:48:56.001Z,28
2022-10-18T09:55:10.486Z,26
2022-10-18T09:59:18.267Z,26.5
2022-10-18T10:01:22.193Z,26.8
2022-10-18T10:03:26.050Z,26.3
2022-10-18T10:05:32.808Z,27.2
2022-10-18T10:07:37.011Z,28.1
2022-10-18T10:09:41.302Z,28.5
2022-10-18T10:11:45.161Z,28.5
2022-10-18T10:13:49.055Z,27.5
2022-10-18T10:15:52.912Z,26.7
2022-10-18T10:28:19.074Z,26.5
2022-10-18T10:30:22.970Z,26.9
2022-10-18T10:36:37.494Z,25.6
2022-10-18T10:38:41.359Z,26.1
2022-10-18T10:39:51.234Z,26.9
2022-10-18T10:41:48.612Z,26.9
2022-10-18T10:43:52.466Z,25.6
2022-10-18T10:45:56.355Z,25.6
2022-10-18T10:48:03.098Z,25.1
2022-10-18T10:50:06.968Z,25.5
2022-10-18T10:52:26.257Z,26.1
2022-10-18T10:54:14.752Z,26
2022-10-18T10:56:18.618Z,25.9
2022-10-18T10:58:22.496Z,26.4
2022-10-18T11:00:26.397Z,25.8
2022-10-18T11:02:33.397Z,26.4
2022-10-18T11:04:36.709Z,26.9
2022-10-18T11:06:40.597Z,27.2
2022-10-18T11:10:48.360Z,26.9
2022-10-18T11:12:52.281Z,26.9
2022-10-18T11:21:10.616Z,22.4
2022-10-18T11:23:14.509Z,23.3
2022-10-18T11:25:18.391Z,24.3
2022-10-18T11:27:22.286Z,25
2022-10-18T11:31:32.886Z,25.1
2022-10-18T11:36:54.557Z,19.7
2022-10-18T11:38:47.921Z,19.1
2022-10-18T11:45:02.495Z,18.5
2022-10-18T11:47:06.327Z,18.5
2022-10-18T11:49:10.236Z,18.7
2022-10-18T11:51:14.145Z,18.6
2022-10-18T11:53:18.050Z,18.6
2022-10-18T11:55:21.954Z,18.6
2022-10-18T11:57:25.878Z,18.5
2022-10-18T11:59:32.618Z,18.6
2022-10-18T12:01:36.524Z,18.5
2022-10-18T12:03:40.439Z,18.6
2022-10-18T12:05:44.364Z,19
2022-10-18T12:09:52.226Z,18.5
2022-10-18T12:11:56.145Z,18.3
2022-10-18T12:14:02.890Z,18.3
2022-10-18T12:16:06.847Z,18.3
2022-10-18T12:18:10.771Z,18.4
2022-10-18T12:22:18.608Z,18.4
2022-10-18T12:24:22.686Z,18.4
2022-10-18T12:26:26.490Z,18.4
2022-10-18T12:28:33.291Z,18.2
2022-10-18T12:30:37.163Z,18.2
2022-10-18T12:32:51.564Z,18.3
2022-10-18T12:35:48.413Z,18.3
2022-10-18T12:37:52.344Z,18.3
2022-10-18T12:40:11.124Z,18.3
2022-10-18T12:42:03.023Z,18.3
2022-10-18T12:44:06.961Z,18.3
2022-10-18T12:46:13.583Z,18.4
2022-10-18T12:48:14.838Z,18.5
2022-10-18T12:50:18.772Z,18.6
2022-10-18T12:52:22.688Z,18.5
2022-10-18T12:54:26.634Z,18.4
2022-10-18T12:56:33.369Z,18.4
2022-10-18T12:58:37.309Z,18.4
2022-10-18T13:00:41.262Z,18.4
2022-10-18T13:02:45.181Z,18.3
2022-10-18T13:04:49.293Z,18.5
2022-10-18T13:06:53.075Z,18.4
2022-10-18T13:08:56.977Z,18.4
2022-10-18T13:11:03.755Z,18.3
2022-10-18T13:13:24.482Z,18.3
2022-10-18T13:15:24.817Z,18.2
2022-10-18T13:17:15.538Z,18.2
2022-10-18T13:19:19.484Z,18.4
2022-10-18T13:23:30.040Z,18.6
2022-10-18T13:25:35.580Z,18.4
2022-10-18T13:27:39.502Z,18.4
2022-10-18T13:29:43.458Z,18.3
2022-10-18T13:32:13.153Z,18.2
2022-10-18T13:34:17.066Z,18.2
2022-10-18T13:36:23.105Z,18.3
2022-10-18T13:38:27.720Z,18.4
2022-10-18T13:40:31.703Z,18.4
2022-10-18T13:42:35.906Z,18.2
2022-10-18T13:44:39.532Z,18.2
2022-10-18T13:46:43.458Z,18.1
2022-10-18T13:48:47.383Z,18.1
2022-10-18T13:50:51.319Z,18
2022-10-18T13:52:58.103Z,18
2022-10-18T13:55:02.046Z,18
2022-10-18T13:57:05.951Z,18
2022-10-18T13:59:14.980Z,17.9
2022-10-18T14:01:14.377Z,17.9
2022-10-18T14:03:32.031Z,17.8
2022-10-18T14:05:24.969Z,17.8
2022-10-18T14:07:28.458Z,17.8
2022-10-18T14:09:43.636Z,17.8
2022-10-18T14:11:36.349Z,17.8
2022-10-18T14:13:40.285Z,17.8
2022-10-18T14:15:44.754Z,17.8
2022-10-18T14:17:48.677Z,17.8
2022-10-18T14:19:52.614Z,17.8
2022-10-18T14:21:59.374Z,17.7
2022-10-18T14:24:03.327Z,17.5
2022-10-18T14:26:07.237Z,17.4
2022-10-18T14:27:10.612Z,17.4
2022-10-18T14:29:14.602Z,17.3
2022-10-18T14:31:18.509Z,17.2
2022-10-18T14:33:22.432Z,17.1
2022-10-18T14:35:32.869Z,17
2022-10-18T14:37:33.432Z,17
2022-10-18T14:39:37.045Z,17
2022-10-18T14:41:40.996Z,17
2022-10-18T14:43:44.911Z,17
2022-10-18T14:45:48.868Z,16.8
2022-10-18T14:47:52.834Z,16.8
2022-10-18T14:49:59.563Z,16.8
2022-10-18T14:52:03.474Z,16.7
2022-10-18T14:54:07.458Z,16.5
2022-10-18T14:56:11.344Z,16.8
2022-10-18T14:58:15.304Z,16.9
2022-10-18T15:00:19.249Z,16.9
2022-10-18T15:02:23.200Z,16.6
2022-10-18T15:04:29.947Z,16.4
2022-10-18T15:06:33.863Z,16.3
2022-10-18T15:08:37.825Z,16.2
2022-10-18T15:10:41.741Z,16.1
2022-10-18T15:14:49.614Z,16.1
2022-10-18T15:16:53.781Z,16
2022-10-18T15:19:00.324Z,15.9
2022-10-18T15:21:04.255Z,15.9
2022-10-18T15:23:08.206Z,15.9
2022-10-18T15:24:11.585Z,15.9
2022-10-18T15:26:15.533Z,15.8
2022-10-18T15:28:19.479Z,15.8
2022-10-18T15:30:23.401Z,15.7
2022-10-18T15:36:38.084Z,15.5
2022-10-18T15:42:49.856Z,15.4
2022-10-18T15:47:00.556Z,15.2
2022-10-18T15:51:08.442Z,15.1
2022-10-18T15:53:12.390Z,15.1
2022-10-18T15:57:20.274Z,15.2
2022-10-18T15:59:24.197Z,15.2
2022-10-18T16:01:31.040Z,15
2022-10-18T16:03:34.892Z,14.9
2022-10-18T16:05:38.856Z,14.8
2022-10-18T16:07:42.768Z,14.7
2022-10-18T16:11:55.601Z,14.5
2022-10-18T16:13:57.829Z,14.5
2022-10-18T16:16:01.336Z,14.4
2022-10-18T16:18:05.276Z,14.3
2022-10-18T16:20:09.196Z,14.3
2022-10-18T16:21:12.584Z,14.3
2022-10-18T16:23:16.511Z,14.3
2022-10-18T16:25:20.444Z,14.2
2022-10-18T16:27:24.382Z,14.1
2022-10-18T16:29:31.148Z,14
2022-10-18T16:31:35.075Z,13.9
2022-10-18T16:33:39.000Z,13.8
2022-10-18T16:35:42.935Z,13.8
2022-10-18T16:37:46.947Z,13.7
2022-10-18T16:39:50.808Z,13.5
2022-10-18T16:41:54.731Z,13.5
2022-10-18T16:44:01.489Z,13.4
2022-10-18T16:46:05.409Z,13.3
2022-10-18T16:48:09.347Z,13.3
2022-10-18T16:50:13.283Z,13.2
2022-10-18T16:52:17.190Z,13.1
2022-10-18T16:54:21.120Z,13.1
2022-10-18T16:58:31.788Z,13
2022-10-18T17:02:39.636Z,12.8
2022-10-18T17:04:43.560Z,12.7
2022-10-18T17:06:47.503Z,12.6
2022-10-18T17:08:51.404Z,12.5
2022-10-18T17:10:55.364Z,12.5
2022-10-18T17:13:02.085Z,12.4
2022-10-18T17:15:06.029Z,12.4
2022-10-18T17:17:09.922Z,12.4
2022-10-18T17:19:31.956Z,12.4
2022-10-18T17:21:35.904Z,12.3
2022-10-18T17:23:39.808Z,12.3
2022-10-18T17:27:50.448Z,12.1
2022-10-18T17:31:58.306Z,12
2022-10-18T17:36:06.143Z,12
2022-10-18T17:38:10.076Z,11.9
2022-10-18T17:42:20.696Z,12
2022-10-18T17:44:24.607Z,12
2022-10-18T17:46:28.526Z,12
2022-10-18T17:48:32.452Z,12
2022-10-18T17:50:36.501Z,11.8
2022-10-18T17:52:40.527Z,11.7
2022-10-18T17:54:47.148Z,11.6
2022-10-18T17:56:53.898Z,11.5
2022-10-18T17:58:54.970Z,11.4
2022-10-18T18:00:58.894Z,11.3
2022-10-18T18:03:02.863Z,11.3
2022-10-18T18:05:06.680Z,11.3
2022-10-18T18:07:10.622Z,11.2
2022-10-18T18:11:21.251Z,11.2
2022-10-18T18:13:25.152Z,11.2
2022-10-18T18:14:28.519Z,11.3
2022-10-18T18:16:32.424Z,11.3
2022-10-18T18:18:36.339Z,11.2
2022-10-18T18:20:40.249Z,11.1
2022-10-18T18:22:46.961Z,11
2022-10-18T18:24:50.874Z,11
2022-10-18T18:26:54.786Z,11
2022-10-18T18:33:06.586Z,10.9
2022-10-18T18:35:10.499Z,10.9
2022-10-18T18:37:17.203Z,10.8
2022-10-18T18:39:21.111Z,10.7
2022-10-18T18:41:25.020Z,10.8
2022-10-18T18:43:28.918Z,10.7
2022-10-18T18:47:36.703Z,10.6
2022-10-18T18:49:40.613Z,10.5
2022-10-18T18:51:47.427Z,10.5
2022-10-18T18:53:51.294Z,10.5
2022-10-18T18:55:55.220Z,10.4
2022-10-18T19:00:03.423Z,10.3
2022-10-18T19:04:10.786Z,10.3
2022-10-18T19:06:17.475Z,10.2
2022-10-18T19:08:21.370Z,10.2
2022-10-18T19:10:25.249Z,10.2
2022-10-18T19:11:28.607Z,10.1
2022-10-18T19:13:32.480Z,10.1
2022-10-18T19:15:36.377Z,10.2
2022-10-18T19:17:41.771Z,10.2
2022-10-18T19:19:48.413Z,10.1
2022-10-18T19:21:52.301Z,10.1
2022-10-18T19:23:56.205Z,10.1
2022-10-18T19:26:00.102Z,10.1
2022-10-18T19:28:03.973Z,10
2022-10-18T19:30:07.888Z,10
2022-10-18T19:32:11.767Z,10
2022-10-18T19:34:18.597Z,9.9
2022-10-18T19:36:22.534Z,9.9
2022-10-18T19:38:26.532Z,9.9
2022-10-18T19:42:34.699Z,9.9
2022-10-18T19:44:38.417Z,9.8
2022-10-18T19:46:42.062Z,9.8
2022-10-18T19:48:48.780Z,9.8
2022-10-18T19:50:52.662Z,9.8
2022-10-18T19:52:56.561Z,9.8
2022-10-18T19:55:00.415Z,9.8
2022-10-18T19:57:04.304Z,9.8
2022-10-18T19:59:08.194Z,9.8
2022-10-18T20:01:12.658Z,9.7
2022-10-18T20:03:19.322Z,9.7
2022-10-18T20:05:23.292Z,9.7
2022-10-18T20:07:27.187Z,9.6
2022-10-18T20:08:30.536Z,9.7
2022-10-18T20:10:34.374Z,9.6
2022-10-18T20:16:48.946Z,9.5
2022-10-18T20:20:56.895Z,9.5
2022-10-18T20:23:00.746Z,9.5
2022-10-18T20:25:04.640Z,9.5
2022-10-18T20:31:19.399Z,9.3
2022-10-18T20:35:27.221Z,9.3
2022-10-18T20:39:34.951Z,9.2
2022-10-18T20:41:38.916Z,9.2
2022-10-18T20:47:53.563Z,9.1
2022-10-18T20:49:57.541Z,9.1
2022-10-18T20:52:01.410Z,9.1
2022-10-18T20:56:09.149Z,9
2022-10-18T20:58:12.995Z,9
2022-10-18T21:00:19.707Z,8.9
2022-10-18T21:02:23.543Z,8.8
2022-10-18T21:04:27.521Z,8.8
2022-10-18T21:06:51.491Z,8.7
2022-10-18T21:08:55.377Z,8.7
2022-10-18T21:10:59.340Z,8.7
2022-10-18T21:13:06.101Z,8.6
2022-10-18T21:15:09.946Z,8.6
2022-10-18T21:17:13.809Z,8.6
2022-10-18T21:19:17.652Z,8.6
2022-10-18T21:21:21.524Z,8.7
2022-10-18T21:23:25.385Z,8.8
2022-10-18T21:25:29.269Z,8.8
2022-10-18T21:27:36.173Z,8.7
2022-10-18T21:29:40.025Z,8.7
2022-10-18T21:31:43.857Z,8.6
2022-10-18T21:33:47.708Z,8.5
2022-10-18T21:35:51.587Z,8.5
2022-10-18T21:37:55.524Z,8.6
2022-10-18T21:39:59.383Z,8.6
2022-10-18T21:42:06.278Z,8.6
2022-10-18T21:44:10.957Z,8.6
2022-10-18T21:46:14.160Z,8.5
2022-10-18T21:48:18.215Z,8.5
2022-10-18T21:50:21.985Z,8.4
2022-10-18T21:52:25.841Z,8.4
2022-10-18T21:54:29.702Z,8.4
2022-10-18T21:56:36.344Z,8.3
2022-10-18T21:58:40.202Z,8.3
2022-10-18T22:00:44.200Z,8.3
2022-10-18T22:01:47.503Z,8.2
2022-10-18T22:03:51.371Z,8.2
2022-10-18T22:05:55.347Z,8.3
2022-10-18T22:07:59.270Z,8.3
2022-10-18T22:10:06.035Z,8.3
2022-10-18T22:12:10.862Z,8.3
2022-10-18T22:14:13.717Z,8.2
2022-10-18T22:16:17.568Z,8.2
2022-10-18T22:18:21.529Z,8.1
2022-10-18T22:20:25.389Z,8.1
2022-10-18T22:28:44.165Z,8
2022-10-18T22:32:51.932Z,8
2022-10-18T22:34:55.876Z,8
2022-10-18T22:36:59.826Z,8
2022-10-18T22:39:06.677Z,7.9
2022-10-18T22:41:10.549Z,8
2022-10-18T22:43:14.493Z,7.9
2022-10-18T22:45:18.430Z,7.9
2022-10-18T22:47:22.285Z,7.9
2022-10-18T22:49:26.247Z,7.8
2022-10-18T22:51:30.145Z,7.8
2022-10-18T22:53:36.742Z,7.8
2022-10-18T22:55:40.662Z,7.8
2022-10-18T22:57:44.631Z,7.7
2022-10-18T22:58:48.068Z,7.7
2022-10-18T23:00:51.903Z,7.7
2022-10-18T23:02:55.815Z,7.6
2022-10-18T23:04:59.746Z,7.6
2022-10-18T23:07:06.621Z,7.5
2022-10-18T23:09:10.711Z,7.5
2022-10-18T23:11:14.425Z,7.4
2022-10-18T23:13:18.340Z,7.4
2022-10-18T23:15:22.155Z,7.4
2022-10-18T23:17:26.000Z,7.3
2022-10-18T23:19:29.834Z,7.3
2022-10-18T23:21:36.681Z,7.2
2022-10-18T23:23:40.516Z,7.2
2022-10-18T23:25:45.370Z,7.1
2022-10-18T23:27:48.209Z,7.1
2022-10-18T23:29:52.144Z,7.1
2022-10-18T23:31:56.050Z,7
2022-10-18T23:33:59.910Z,7.1
2022-10-18T23:36:06.664Z,7
2022-10-18T23:38:10.480Z,7
2022-10-18T23:40:14.432Z,7
2022-10-18T23:42:18.399Z,7
2022-10-18T23:44:22.328Z,7
2022-10-18T23:46:26.239Z,7
2022-10-18T23:48:30.182Z,7
2022-10-18T23:50:36.953Z,7
2022-10-18T23:52:40.865Z,7
2022-10-18T23:55:48.111Z,6.9
2022-10-18T23:57:52.052Z,6.9
2022-10-18T23:59:56.001Z,6.9
